sensor_id;sensor_type;location;lat;lon;timestamp;P1;P2;P0
81640;PMS5003;74020;50.722;-1.944;2023-12-04T00:02:24;10;10;
81640;PMS5003;74020;50.722;-1.944;2023-12-04T00:04:50;11;10;
81640;PMS5003;74020;50.722;-1.944;2023-12-04T00:07:15;11;10;
81640;PMS5003;74020;50.722;-1.944;2023-12-04T00:09:40;8;7;
81640;PMS5003;74020;50.722;-1.944;2023-12-04T00:12:05;7;7;
81640;PMS5003;74020;50.722;-1.944;2023-12-04T00:14:31;8;7;
81640;PMS5003;74020;50.722;-1.944;2023-12-04T00:16:56;8;8;
81640;PMS5003;74020;50.722;-1.944;2023-12-04T00:19:22;11;10;
81640;PMS5003;74020;50.722;-1.944;2023-12-04T00:21:47;7;7;
81640;PMS5003;74020;50.722;-1.944;2023-12-04T00:24:13;9;9;
81640;PMS5003;74020;50.722;-1.944;2023-12-04T00:26:38;9;8;
81640;PMS5003;74020;50.722;-1.944;2023-12-04T00:29:04;8;8;
81640;PMS5003;74020;50.722;-1.944;2023-12-04T00:31:29;9;9;
81640;PMS5003;74020;50.722;-1.944;2023-12-04T00:33:55;9;8;
81640;PMS5003;74020;50.722;-1.944;2023-12-04T00:36:20;8;7;
81640;PMS5003;74020;50.722;-1.944;2023-12-04T00:38:45;9;9;
81640;PMS5003;74020;50.722;-1.944;2023-12-04T00:41:11;8;8;
81640;PMS5003;74020;50.722;-1.944;2023-12-04T00:43:36;10;8;
81640;PMS5003;74020;50.722;-1.944;2023-12-04T00:46:02;9;8;
81640;PMS5003;74020;50.722;-1.944;2023-12-04T00:48:28;5;5;
81640;PMS5003;74020;50.722;-1.944;2023-12-04T00:50:54;10;10;
81640;PMS5003;74020;50.722;-1.944;2023-12-04T00:53:18;10;10;
81640;PMS5003;74020;50.722;-1.944;2023-12-04T00:55:43;9;9;
81640;PMS5003;74020;50.722;-1.944;2023-12-04T00:58:09;8;7;
81640;PMS5003;74020;50.722;-1.944;2023-12-04T01:00:34;9;9;
81640;PMS5003;74020;50.722;-1.944;2023-12-04T01:03:00;8;7;
81640;PMS5003;74020;50.722;-1.944;2023-12-04T01:05:25;8;8;
81640;PMS5003;74020;50.722;-1.944;2023-12-04T01:07:50;5;5;
81640;PMS5003;74020;50.722;-1.944;2023-12-04T01:10:16;8;8;
81640;PMS5003;74020;50.722;-1.944;2023-12-04T01:12:41;9;8;
81640;PMS5003;74020;50.722;-1.944;2023-12-04T01:15:07;8;8;
81640;PMS5003;74020;50.722;-1.944;2023-12-04T01:17:32;8;8;
81640;PMS5003;74020;50.722;-1.944;2023-12-04T01:19:58;5;5;
81640;PMS5003;74020;50.722;-1.944;2023-12-04T01:22:23;9;8;
81640;PMS5003;74020;50.722;-1.944;2023-12-04T01:24:49;7;7;
81640;PMS5003;74020;50.722;-1.944;2023-12-04T01:27:14;11;8;
81640;PMS5003;74020;50.722;-1.944;2023-12-04T01:29:40;9;8;
81640;PMS5003;74020;50.722;-1.944;2023-12-04T01:32:05;11;10;
81640;PMS5003;74020;50.722;-1.944;2023-12-04T01:34:30;10;9;
81640;PMS5003;74020;50.722;-1.944;2023-12-04T01:36:56;9;8;
81640;PMS5003;74020;50.722;-1.944;2023-12-04T01:39:21;8;7;
81640;PMS5003;74020;50.722;-1.944;2023-12-04T01:41:47;9;8;
81640;PMS5003;74020;50.722;-1.944;2023-12-04T01:44:12;10;9;
81640;PMS5003;74020;50.722;-1.944;2023-12-04T01:46:38;8;8;
81640;PMS5003;74020;50.722;-1.944;2023-12-04T01:49:03;9;8;
81640;PMS5003;74020;50.722;-1.944;2023-12-04T01:51:29;9;9;
81640;PMS5003;74020;50.722;-1.944;2023-12-04T01:53:54;7;7;
81640;PMS5003;74020;50.722;-1.944;2023-12-04T01:56:19;7;7;
81640;PMS5003;74020;50.722;-1.944;2023-12-04T01:58:45;11;9;
81640;PMS5003;74020;50.722;-1.944;2023-12-04T02:01:10;12;11;
81640;PMS5003;74020;50.722;-1.944;2023-12-04T02:03:35;14;11;
81640;PMS5003;74020;50.722;-1.944;2023-12-04T02:06:01;8;8;
81640;PMS5003;74020;50.722;-1.944;2023-12-04T02:08:26;10;9;
81640;PMS5003;74020;50.722;-1.944;2023-12-04T02:10:51;8;8;
81640;PMS5003;74020;50.722;-1.944;2023-12-04T02:13:17;8;6;
81640;PMS5003;74020;50.722;-1.944;2023-12-04T02:15:42;8;8;
81640;PMS5003;74020;50.722;-1.944;2023-12-04T02:18:07;10;10;
81640;PMS5003;74020;50.722;-1.944;2023-12-04T02:20:33;8;6;
81640;PMS5003;74020;50.722;-1.944;2023-12-04T02:22:59;10;10;
81640;PMS5003;74020;50.722;-1.944;2023-12-04T02:25:24;9;7;
81640;PMS5003;74020;50.722;-1.944;2023-12-04T02:27:50;9;8;
81640;PMS5003;74020;50.722;-1.944;2023-12-04T02:30:16;8;6;
81640;PMS5003;74020;50.722;-1.944;2023-12-04T02:32:42;6;6;
81640;PMS5003;74020;50.722;-1.944;2023-12-04T02:35:06;10;9;
81640;PMS5003;74020;50.722;-1.944;2023-12-04T02:37:31;9;9;
81640;PMS5003;74020;50.722;-1.944;2023-12-04T02:39:57;8;6;
81640;PMS5003;74020;50.722;-1.944;2023-12-04T02:42:22;9;9;
81640;PMS5003;74020;50.722;-1.944;2023-12-04T02:44:48;6;6;
81640;PMS5003;74020;50.722;-1.944;2023-12-04T02:47:13;8;6;
81640;PMS5003;74020;50.722;-1.944;2023-12-04T02:49:39;7;7;
81640;PMS5003;74020;50.722;-1.944;2023-12-04T02:52:04;8;8;
81640;PMS5003;74020;50.722;-1.944;2023-12-04T02:54:30;11;11;
81640;PMS5003;74020;50.722;-1.944;2023-12-04T02:56:55;8;8;
81640;PMS5003;74020;50.722;-1.944;2023-12-04T02:59:20;9;8;
81640;PMS5003;74020;50.722;-1.944;2023-12-04T03:01:45;8;8;
81640;PMS5003;74020;50.722;-1.944;2023-12-04T03:04:10;12;12;
81640;PMS5003;74020;50.722;-1.944;2023-12-04T03:06:36;10;10;
81640;PMS5003;74020;50.722;-1.944;2023-12-04T03:09:02;8;8;
81640;PMS5003;74020;50.722;-1.944;2023-12-04T03:11:27;11;10;
81640;PMS5003;74020;50.722;-1.944;2023-12-04T03:13:52;12;11;
81640;PMS5003;74020;50.722;-1.944;2023-12-04T03:16:18;9;9;
81640;PMS5003;74020;50.722;-1.944;2023-12-04T03:18:43;5;5;
81640;PMS5003;74020;50.722;-1.944;2023-12-04T03:21:09;8;8;
81640;PMS5003;74020;50.722;-1.944;2023-12-04T03:23:34;9;9;
81640;PMS5003;74020;50.722;-1.944;2023-12-04T03:25:59;10;10;
81640;PMS5003;74020;50.722;-1.944;2023-12-04T03:28:25;9;9;
81640;PMS5003;74020;50.722;-1.944;2023-12-04T03:30:50;9;9;
81640;PMS5003;74020;50.722;-1.944;2023-12-04T03:33:15;9;6;
81640;PMS5003;74020;50.722;-1.944;2023-12-04T03:35:41;10;9;
81640;PMS5003;74020;50.722;-1.944;2023-12-04T03:38:06;6;6;
81640;PMS5003;74020;50.722;-1.944;2023-12-04T03:40:31;9;9;
81640;PMS5003;74020;50.722;-1.944;2023-12-04T03:42:57;9;9;
81640;PMS5003;74020;50.722;-1.944;2023-12-04T03:45:22;6;6;
81640;PMS5003;74020;50.722;-1.944;2023-12-04T03:47:48;6;6;
81640;PMS5003;74020;50.722;-1.944;2023-12-04T03:50:13;11;9;
81640;PMS5003;74020;50.722;-1.944;2023-12-04T03:52:38;10;9;
81640;PMS5003;74020;50.722;-1.944;2023-12-04T03:55:04;10;8;
81640;PMS5003;74020;50.722;-1.944;2023-12-04T03:57:29;11;10;
81640;PMS5003;74020;50.722;-1.944;2023-12-04T03:59:54;9;9;
81640;PMS5003;74020;50.722;-1.944;2023-12-04T04:02:20;10;10;
81640;PMS5003;74020;50.722;-1.944;2023-12-04T04:04:45;7;7;
81640;PMS5003;74020;50.722;-1.944;2023-12-04T04:07:11;6;6;
81640;PMS5003;74020;50.722;-1.944;2023-12-04T04:09:36;10;9;
81640;PMS5003;74020;50.722;-1.944;2023-12-04T04:12:01;7;7;
81640;PMS5003;74020;50.722;-1.944;2023-12-04T04:14:26;9;8;
81640;PMS5003;74020;50.722;-1.944;2023-12-04T04:16:51;9;7;
81640;PMS5003;74020;50.722;-1.944;2023-12-04T04:19:17;7;7;
81640;PMS5003;74020;50.722;-1.944;2023-12-04T04:21:42;7;6;
81640;PMS5003;74020;50.722;-1.944;2023-12-04T04:24:08;10;9;
81640;PMS5003;74020;50.722;-1.944;2023-12-04T04:26:33;8;8;
81640;PMS5003;74020;50.722;-1.944;2023-12-04T04:28:59;9;7;
81640;PMS5003;74020;50.722;-1.944;2023-12-04T04:31:24;8;8;
81640;PMS5003;74020;50.722;-1.944;2023-12-04T04:33:49;7;6;
81640;PMS5003;74020;50.722;-1.944;2023-12-04T04:36:14;11;9;
81640;PMS5003;74020;50.722;-1.944;2023-12-04T04:38:39;6;5;
81640;PMS5003;74020;50.722;-1.944;2023-12-04T04:41:05;9;6;
81640;PMS5003;74020;50.722;-1.944;2023-12-04T04:43:30;8;6;
81640;PMS5003;74020;50.722;-1.944;2023-12-04T04:45:56;6;6;
81640;PMS5003;74020;50.722;-1.944;2023-12-04T04:48:21;9;9;
81640;PMS5003;74020;50.722;-1.944;2023-12-04T04:50:46;7;7;
81640;PMS5003;74020;50.722;-1.944;2023-12-04T04:53:12;11;11;
81640;PMS5003;74020;50.722;-1.944;2023-12-04T04:55:37;6;6;
81640;PMS5003;74020;50.722;-1.944;2023-12-04T04:58:03;9;7;
81640;PMS5003;74020;50.722;-1.944;2023-12-04T05:00:28;9;9;
81640;PMS5003;74020;50.722;-1.944;2023-12-04T05:02:54;11;10;
81640;PMS5003;74020;50.722;-1.944;2023-12-04T05:05:19;11;9;
81640;PMS5003;74020;50.722;-1.944;2023-12-04T05:07:44;9;7;
81640;PMS5003;74020;50.722;-1.944;2023-12-04T05:10:10;10;10;
81640;PMS5003;74020;50.722;-1.944;2023-12-04T05:12:35;9;9;
81640;PMS5003;74020;50.722;-1.944;2023-12-04T05:15:01;10;8;
81640;PMS5003;74020;50.722;-1.944;2023-12-04T05:17:26;7;7;
81640;PMS5003;74020;50.722;-1.944;2023-12-04T05:19:51;6;6;
81640;PMS5003;74020;50.722;-1.944;2023-12-04T05:22:17;9;7;
81640;PMS5003;74020;50.722;-1.944;2023-12-04T05:24:42;9;8;
81640;PMS5003;74020;50.722;-1.944;2023-12-04T05:27:08;11;9;
81640;PMS5003;74020;50.722;-1.944;2023-12-04T05:29:33;7;7;
81640;PMS5003;74020;50.722;-1.944;2023-12-04T05:31:59;8;6;
81640;PMS5003;74020;50.722;-1.944;2023-12-04T05:34:24;10;10;
81640;PMS5003;74020;50.722;-1.944;2023-12-04T05:36:50;9;7;
81640;PMS5003;74020;50.722;-1.944;2023-12-04T05:39:15;12;12;
81640;PMS5003;74020;50.722;-1.944;2023-12-04T05:41:41;6;5;
81640;PMS5003;74020;50.722;-1.944;2023-12-04T05:44:06;7;6;
81640;PMS5003;74020;50.722;-1.944;2023-12-04T05:46:32;7;7;
81640;PMS5003;74020;50.722;-1.944;2023-12-04T05:48:57;6;6;
81640;PMS5003;74020;50.722;-1.944;2023-12-04T05:51:23;11;10;
81640;PMS5003;74020;50.722;-1.944;2023-12-04T05:53:48;13;10;
81640;PMS5003;74020;50.722;-1.944;2023-12-04T05:56:13;5;5;
81640;PMS5003;74020;50.722;-1.944;2023-12-04T05:58:38;9;7;
81640;PMS5003;74020;50.722;-1.944;2023-12-04T06:01:04;7;7;
81640;PMS5003;74020;50.722;-1.944;2023-12-04T06:03:29;7;7;
81640;PMS5003;74020;50.722;-1.944;2023-12-04T06:05:55;10;7;
81640;PMS5003;74020;50.722;-1.944;2023-12-04T06:08:20;6;5;
81640;PMS5003;74020;50.722;-1.944;2023-12-04T06:10:45;9;9;
81640;PMS5003;74020;50.722;-1.944;2023-12-04T06:13:10;7;7;
81640;PMS5003;74020;50.722;-1.944;2023-12-04T06:15:36;12;12;
81640;PMS5003;74020;50.722;-1.944;2023-12-04T06:18:01;9;9;
81640;PMS5003;74020;50.722;-1.944;2023-12-04T06:20:26;9;7;
81640;PMS5003;74020;50.722;-1.944;2023-12-04T06:22:52;7;7;
81640;PMS5003;74020;50.722;-1.944;2023-12-04T06:25:17;6;5;
81640;PMS5003;74020;50.722;-1.944;2023-12-04T06:27:43;10;9;
81640;PMS5003;74020;50.722;-1.944;2023-12-04T06:30:08;5;5;
81640;PMS5003;74020;50.722;-1.944;2023-12-04T06:32:34;9;7;
81640;PMS5003;74020;50.722;-1.944;2023-12-04T06:34:59;9;7;
81640;PMS5003;74020;50.722;-1.944;2023-12-04T06:37:25;6;5;
81640;PMS5003;74020;50.722;-1.944;2023-12-04T06:39:49;7;6;
81640;PMS5003;74020;50.722;-1.944;2023-12-04T06:42:15;7;7;
81640;PMS5003;74020;50.722;-1.944;2023-12-04T06:44:40;6;6;
81640;PMS5003;74020;50.722;-1.944;2023-12-04T06:47:05;8;7;
81640;PMS5003;74020;50.722;-1.944;2023-12-04T06:49:31;10;8;
81640;PMS5003;74020;50.722;-1.944;2023-12-04T06:51:56;6;6;
81640;PMS5003;74020;50.722;-1.944;2023-12-04T06:54:21;8;7;
81640;PMS5003;74020;50.722;-1.944;2023-12-04T06:56:46;6;6;
81640;PMS5003;74020;50.722;-1.944;2023-12-04T06:59:12;10;7;
81640;PMS5003;74020;50.722;-1.944;2023-12-04T07:01:38;6;6;
81640;PMS5003;74020;50.722;-1.944;2023-12-04T07:04:03;5;5;
81640;PMS5003;74020;50.722;-1.944;2023-12-04T07:06:28;8;8;
81640;PMS5003;74020;50.722;-1.944;2023-12-04T07:08:53;11;10;
81640;PMS5003;74020;50.722;-1.944;2023-12-04T07:11:18;7;6;
81640;PMS5003;74020;50.722;-1.944;2023-12-04T07:13:44;10;7;
81640;PMS5003;74020;50.722;-1.944;2023-12-04T07:16:09;10;8;
81640;PMS5003;74020;50.722;-1.944;2023-12-04T07:18:34;6;6;
81640;PMS5003;74020;50.722;-1.944;2023-12-04T07:21:00;10;10;
81640;PMS5003;74020;50.722;-1.944;2023-12-04T07:23:25;12;9;
81640;PMS5003;74020;50.722;-1.944;2023-12-04T07:25:51;8;8;
81640;PMS5003;74020;50.722;-1.944;2023-12-04T07:28:16;8;8;
81640;PMS5003;74020;50.722;-1.944;2023-12-04T07:30:41;6;6;
81640;PMS5003;74020;50.722;-1.944;2023-12-04T07:33:06;5;5;
81640;PMS5003;74020;50.722;-1.944;2023-12-04T07:35:31;8;7;
81640;PMS5003;74020;50.722;-1.944;2023-12-04T07:37:57;5;5;
81640;PMS5003;74020;50.722;-1.944;2023-12-04T07:40:22;7;7;
81640;PMS5003;74020;50.722;-1.944;2023-12-04T07:42:48;5;5;
81640;PMS5003;74020;50.722;-1.944;2023-12-04T07:45:13;4;4;
81640;PMS5003;74020;50.722;-1.944;2023-12-04T07:47:39;8;6;
81640;PMS5003;74020;50.722;-1.944;2023-12-04T07:50:04;7;6;
81640;PMS5003;74020;50.722;-1.944;2023-12-04T07:52:29;7;7;
81640;PMS5003;74020;50.722;-1.944;2023-12-04T07:54:55;10;9;
81640;PMS5003;74020;50.722;-1.944;2023-12-04T07:57:20;10;9;
81640;PMS5003;74020;50.722;-1.944;2023-12-04T07:59:46;6;6;
81640;PMS5003;74020;50.722;-1.944;2023-12-04T08:02:11;7;7;
81640;PMS5003;74020;50.722;-1.944;2023-12-04T08:04:37;5;5;
81640;PMS5003;74020;50.722;-1.944;2023-12-04T08:07:02;5;5;
81640;PMS5003;74020;50.722;-1.944;2023-12-04T08:09:28;5;5;
81640;PMS5003;74020;50.722;-1.944;2023-12-04T08:11:53;5;5;
81640;PMS5003;74020;50.722;-1.944;2023-12-04T08:14:18;7;6;
81640;PMS5003;74020;50.722;-1.944;2023-12-04T08:16:44;5;5;
81640;PMS5003;74020;50.722;-1.944;2023-12-04T08:19:09;6;5;
81640;PMS5003;74020;50.722;-1.944;2023-12-04T08:21:34;9;7;
81640;PMS5003;74020;50.722;-1.944;2023-12-04T08:24:00;7;7;
81640;PMS5003;74020;50.722;-1.944;2023-12-04T08:26:25;10;10;
81640;PMS5003;74020;50.722;-1.944;2023-12-04T08:28:50;9;9;
81640;PMS5003;74020;50.722;-1.944;2023-12-04T08:31:15;5;5;
81640;PMS5003;74020;50.722;-1.944;2023-12-04T08:33:41;10;7;
81640;PMS5003;74020;50.722;-1.944;2023-12-04T08:36:06;7;7;
81640;PMS5003;74020;50.722;-1.944;2023-12-04T08:38:31;6;6;
81640;PMS5003;74020;50.722;-1.944;2023-12-04T08:40:56;9;9;
81640;PMS5003;74020;50.722;-1.944;2023-12-04T08:43:22;7;6;
81640;PMS5003;74020;50.722;-1.944;2023-12-04T08:45:47;7;7;
81640;PMS5003;74020;50.722;-1.944;2023-12-04T08:48:13;7;7;
81640;PMS5003;74020;50.722;-1.944;2023-12-04T08:50:38;7;7;
81640;PMS5003;74020;50.722;-1.944;2023-12-04T08:53:03;6;6;
81640;PMS5003;74020;50.722;-1.944;2023-12-04T08:55:29;6;6;
81640;PMS5003;74020;50.722;-1.944;2023-12-04T08:57:54;6;6;
81640;PMS5003;74020;50.722;-1.944;2023-12-04T09:00:20;6;6;
81640;PMS5003;74020;50.722;-1.944;2023-12-04T09:02:45;10;9;
81640;PMS5003;74020;50.722;-1.944;2023-12-04T09:05:10;5;5;
81640;PMS5003;74020;50.722;-1.944;2023-12-04T09:07:36;7;5;
81640;PMS5003;74020;50.722;-1.944;2023-12-04T09:10:01;6;6;
81640;PMS5003;74020;50.722;-1.944;2023-12-04T09:12:26;6;5;
81640;PMS5003;74020;50.722;-1.944;2023-12-04T09:14:52;6;5;
81640;PMS5003;74020;50.722;-1.944;2023-12-04T09:17:17;7;7;
81640;PMS5003;74020;50.722;-1.944;2023-12-04T09:19:42;5;5;
81640;PMS5003;74020;50.722;-1.944;2023-12-04T09:22:08;5;5;
81640;PMS5003;74020;50.722;-1.944;2023-12-04T09:24:33;7;7;
81640;PMS5003;74020;50.722;-1.944;2023-12-04T09:26:59;10;10;
81640;PMS5003;74020;50.722;-1.944;2023-12-04T09:29:24;6;6;
81640;PMS5003;74020;50.722;-1.944;2023-12-04T09:31:50;7;6;
81640;PMS5003;74020;50.722;-1.944;2023-12-04T09:34:15;6;6;
81640;PMS5003;74020;50.722;-1.944;2023-12-04T09:36:40;6;6;
81640;PMS5003;74020;50.722;-1.944;2023-12-04T09:39:06;7;7;
81640;PMS5003;74020;50.722;-1.944;2023-12-04T09:41:31;5;5;
81640;PMS5003;74020;50.722;-1.944;2023-12-04T09:43:57;9;7;
81640;PMS5003;74020;50.722;-1.944;2023-12-04T09:46:22;9;7;
81640;PMS5003;74020;50.722;-1.944;2023-12-04T09:48:47;9;7;
81640;PMS5003;74020;50.722;-1.944;2023-12-04T09:51:13;4;3;
81640;PMS5003;74020;50.722;-1.944;2023-12-04T09:53:39;10;9;
81640;PMS5003;74020;50.722;-1.944;2023-12-04T09:56:04;9;9;
81640;PMS5003;74020;50.722;-1.944;2023-12-04T09:58:29;5;5;
81640;PMS5003;74020;50.722;-1.944;2023-12-04T10:00:55;7;6;
81640;PMS5003;74020;50.722;-1.944;2023-12-04T10:03:20;6;5;
81640;PMS5003;74020;50.722;-1.944;2023-12-04T10:05:46;7;7;
81640;PMS5003;74020;50.722;-1.944;2023-12-04T10:08:11;5;5;
81640;PMS5003;74020;50.722;-1.944;2023-12-04T10:10:37;5;5;
81640;PMS5003;74020;50.722;-1.944;2023-12-04T10:13:02;5;5;
81640;PMS5003;74020;50.722;-1.944;2023-12-04T10:15:27;7;7;
81640;PMS5003;74020;50.722;-1.944;2023-12-04T10:17:53;6;5;
81640;PMS5003;74020;50.722;-1.944;2023-12-04T10:20:18;6;6;
81640;PMS5003;74020;50.722;-1.944;2023-12-04T10:22:52;4;4;
81640;PMS5003;74020;50.722;-1.944;2023-12-04T10:25:14;6;6;
81640;PMS5003;74020;50.722;-1.944;2023-12-04T10:27:34;5;5;
81640;PMS5003;74020;50.722;-1.944;2023-12-04T10:30:00;6;6;
81640;PMS5003;74020;50.722;-1.944;2023-12-04T10:32:25;5;5;
81640;PMS5003;74020;50.722;-1.944;2023-12-04T10:34:51;7;6;
81640;PMS5003;74020;50.722;-1.944;2023-12-04T10:37:16;7;7;
81640;PMS5003;74020;50.722;-1.944;2023-12-04T10:39:47;5;5;
81640;PMS5003;74020;50.722;-1.944;2023-12-04T10:42:06;5;4;
81640;PMS5003;74020;50.722;-1.944;2023-12-04T10:44:32;8;6;
81640;PMS5003;74020;50.722;-1.944;2023-12-04T10:46:57;5;5;
81640;PMS5003;74020;50.722;-1.944;2023-12-04T10:49:22;6;5;
81640;PMS5003;74020;50.722;-1.944;2023-12-04T10:51:48;6;6;
81640;PMS5003;74020;50.722;-1.944;2023-12-04T10:54:13;5;4;
81640;PMS5003;74020;50.722;-1.944;2023-12-04T10:56:38;6;6;
81640;PMS5003;74020;50.722;-1.944;2023-12-04T10:59:04;3;3;
81640;PMS5003;74020;50.722;-1.944;2023-12-04T11:01:29;5;5;
81640;PMS5003;74020;50.722;-1.944;2023-12-04T11:03:55;7;6;
81640;PMS5003;74020;50.722;-1.944;2023-12-04T11:06:21;5;5;
81640;PMS5003;74020;50.722;-1.944;2023-12-04T11:11:12;4;4;
81640;PMS5003;74020;50.722;-1.944;2023-12-04T11:13:37;3;3;
81640;PMS5003;74020;50.722;-1.944;2023-12-04T11:16:01;4;4;
81640;PMS5003;74020;50.722;-1.944;2023-12-04T11:18:26;2;2;
81640;PMS5003;74020;50.722;-1.944;2023-12-04T11:20:54;4;4;
81640;PMS5003;74020;50.722;-1.944;2023-12-04T11:23:17;3;3;
81640;PMS5003;74020;50.722;-1.944;2023-12-04T11:25:43;8;6;
81640;PMS5003;74020;50.722;-1.944;2023-12-04T11:28:08;5;5;
81640;PMS5003;74020;50.722;-1.944;2023-12-04T11:30:33;4;4;
81640;PMS5003;74020;50.722;-1.944;2023-12-04T11:32:59;5;4;
81640;PMS5003;74020;50.722;-1.944;2023-12-04T11:35:25;4;4;
81640;PMS5003;74020;50.722;-1.944;2023-12-04T11:37:50;4;4;
81640;PMS5003;74020;50.722;-1.944;2023-12-04T11:40:15;5;5;
81640;PMS5003;74020;50.722;-1.944;2023-12-04T11:42:40;4;4;
81640;PMS5003;74020;50.722;-1.944;2023-12-04T11:45:05;7;7;
81640;PMS5003;74020;50.722;-1.944;2023-12-04T11:47:31;7;7;
81640;PMS5003;74020;50.722;-1.944;2023-12-04T11:49:57;6;6;
81640;PMS5003;74020;50.722;-1.944;2023-12-04T11:54:56;5;5;
81640;PMS5003;74020;50.722;-1.944;2023-12-04T11:57:20;6;6;
81640;PMS5003;74020;50.722;-1.944;2023-12-04T11:59:38;7;6;
81640;PMS5003;74020;50.722;-1.944;2023-12-04T12:02:03;5;5;
81640;PMS5003;74020;50.722;-1.944;2023-12-04T12:04:28;6;6;
81640;PMS5003;74020;50.722;-1.944;2023-12-04T12:06:54;7;7;
81640;PMS5003;74020;50.722;-1.944;2023-12-04T12:09:19;11;11;
81640;PMS5003;74020;50.722;-1.944;2023-12-04T12:11:45;6;6;
81640;PMS5003;74020;50.722;-1.944;2023-12-04T12:14:10;8;8;
81640;PMS5003;74020;50.722;-1.944;2023-12-04T12:16:35;10;10;
81640;PMS5003;74020;50.722;-1.944;2023-12-04T12:19:00;11;8;
81640;PMS5003;74020;50.722;-1.944;2023-12-04T12:21:26;8;8;
81640;PMS5003;74020;50.722;-1.944;2023-12-04T12:23:51;6;6;
81640;PMS5003;74020;50.722;-1.944;2023-12-04T12:26:17;7;7;
81640;PMS5003;74020;50.722;-1.944;2023-12-04T12:28:42;6;6;
81640;PMS5003;74020;50.722;-1.944;2023-12-04T12:31:07;5;5;
81640;PMS5003;74020;50.722;-1.944;2023-12-04T12:33:33;6;6;
81640;PMS5003;74020;50.722;-1.944;2023-12-04T12:35:58;7;7;
81640;PMS5003;74020;50.722;-1.944;2023-12-04T12:38:23;8;7;
81640;PMS5003;74020;50.722;-1.944;2023-12-04T12:40:49;6;6;
81640;PMS5003;74020;50.722;-1.944;2023-12-04T12:43:14;6;6;
81640;PMS5003;74020;50.722;-1.944;2023-12-04T12:45:40;4;4;
81640;PMS5003;74020;50.722;-1.944;2023-12-04T12:48:05;5;5;
81640;PMS5003;74020;50.722;-1.944;2023-12-04T12:50:31;6;5;
81640;PMS5003;74020;50.722;-1.944;2023-12-04T12:52:55;5;5;
81640;PMS5003;74020;50.722;-1.944;2023-12-04T12:55:22;5;5;
81640;PMS5003;74020;50.722;-1.944;2023-12-04T12:57:46;5;5;
81640;PMS5003;74020;50.722;-1.944;2023-12-04T13:00:12;6;6;
81640;PMS5003;74020;50.722;-1.944;2023-12-04T13:02:37;8;8;
81640;PMS5003;74020;50.722;-1.944;2023-12-04T13:05:02;5;5;
81640;PMS5003;74020;50.722;-1.944;2023-12-04T13:07:28;6;6;
81640;PMS5003;74020;50.722;-1.944;2023-12-04T13:09:53;6;6;
81640;PMS5003;74020;50.722;-1.944;2023-12-04T13:12:18;4;4;
81640;PMS5003;74020;50.722;-1.944;2023-12-04T13:14:44;6;6;
81640;PMS5003;74020;50.722;-1.944;2023-12-04T13:17:09;5;5;
81640;PMS5003;74020;50.722;-1.944;2023-12-04T13:19:34;6;5;
81640;PMS5003;74020;50.722;-1.944;2023-12-04T13:22:00;5;5;
81640;PMS5003;74020;50.722;-1.944;2023-12-04T13:24:25;5;5;
81640;PMS5003;74020;50.722;-1.944;2023-12-04T13:26:50;4;4;
81640;PMS5003;74020;50.722;-1.944;2023-12-04T13:29:16;4;4;
81640;PMS5003;74020;50.722;-1.944;2023-12-04T13:31:41;7;5;
81640;PMS5003;74020;50.722;-1.944;2023-12-04T13:34:06;5;5;
81640;PMS5003;74020;50.722;-1.944;2023-12-04T13:36:32;4;3;
81640;PMS5003;74020;50.722;-1.944;2023-12-04T13:38:57;4;4;
81640;PMS5003;74020;50.722;-1.944;2023-12-04T13:41:22;5;5;
81640;PMS5003;74020;50.722;-1.944;2023-12-04T13:43:48;5;5;
81640;PMS5003;74020;50.722;-1.944;2023-12-04T13:46:13;9;9;
81640;PMS5003;74020;50.722;-1.944;2023-12-04T13:48:39;9;9;
81640;PMS5003;74020;50.722;-1.944;2023-12-04T13:51:04;8;8;
81640;PMS5003;74020;50.722;-1.944;2023-12-04T13:53:29;6;6;
81640;PMS5003;74020;50.722;-1.944;2023-12-04T13:55:55;6;6;
81640;PMS5003;74020;50.722;-1.944;2023-12-04T13:58:20;5;5;
81640;PMS5003;74020;50.722;-1.944;2023-12-04T14:00:45;5;4;
81640;PMS5003;74020;50.722;-1.944;2023-12-04T14:03:11;7;6;
81640;PMS5003;74020;50.722;-1.944;2023-12-04T14:05:36;7;6;
81640;PMS5003;74020;50.722;-1.944;2023-12-04T14:08:01;6;6;
81640;PMS5003;74020;50.722;-1.944;2023-12-04T14:10:27;5;5;
81640;PMS5003;74020;50.722;-1.944;2023-12-04T14:12:52;9;9;
81640;PMS5003;74020;50.722;-1.944;2023-12-04T14:15:17;13;13;
81640;PMS5003;74020;50.722;-1.944;2023-12-04T14:17:43;16;16;
81640;PMS5003;74020;50.722;-1.944;2023-12-04T14:20:08;13;13;
81640;PMS5003;74020;50.722;-1.944;2023-12-04T14:22:34;13;13;
81640;PMS5003;74020;50.722;-1.944;2023-12-04T14:24:59;16;16;
81640;PMS5003;74020;50.722;-1.944;2023-12-04T14:27:24;14;13;
81640;PMS5003;74020;50.722;-1.944;2023-12-04T14:29:50;21;19;
81640;PMS5003;74020;50.722;-1.944;2023-12-04T14:32:15;12;12;
81640;PMS5003;74020;50.722;-1.944;2023-12-04T14:34:40;12;12;
81640;PMS5003;74020;50.722;-1.944;2023-12-04T14:37:06;8;8;
81640;PMS5003;74020;50.722;-1.944;2023-12-04T14:41:56;8;8;
81640;PMS5003;74020;50.722;-1.944;2023-12-04T14:44:22;8;8;
81640;PMS5003;74020;50.722;-1.944;2023-12-04T14:46:47;11;9;
81640;PMS5003;74020;50.722;-1.944;2023-12-04T14:49:13;10;10;
81640;PMS5003;74020;50.722;-1.944;2023-12-04T14:51:38;10;10;
81640;PMS5003;74020;50.722;-1.944;2023-12-04T14:54:03;11;11;
81640;PMS5003;74020;50.722;-1.944;2023-12-04T14:56:29;11;10;
81640;PMS5003;74020;50.722;-1.944;2023-12-04T14:58:54;12;10;
81640;PMS5003;74020;50.722;-1.944;2023-12-04T15:01:20;12;11;
81640;PMS5003;74020;50.722;-1.944;2023-12-04T15:03:45;12;11;
81640;PMS5003;74020;50.722;-1.944;2023-12-04T15:06:10;13;13;
81640;PMS5003;74020;50.722;-1.944;2023-12-04T15:08:36;8;8;
81640;PMS5003;74020;50.722;-1.944;2023-12-04T15:11:01;14;14;
81640;PMS5003;74020;50.722;-1.944;2023-12-04T15:13:26;13;13;
81640;PMS5003;74020;50.722;-1.944;2023-12-04T15:15:52;14;14;
81640;PMS5003;74020;50.722;-1.944;2023-12-04T15:18:17;15;15;
81640;PMS5003;74020;50.722;-1.944;2023-12-04T15:20:43;15;14;
81640;PMS5003;74020;50.722;-1.944;2023-12-04T15:23:08;15;15;
81640;PMS5003;74020;50.722;-1.944;2023-12-04T15:25:33;14;14;
81640;PMS5003;74020;50.722;-1.944;2023-12-04T15:27:59;12;11;
81640;PMS5003;74020;50.722;-1.944;2023-12-04T15:30:24;14;13;
81640;PMS5003;74020;50.722;-1.944;2023-12-04T15:32:50;14;13;
81640;PMS5003;74020;50.722;-1.944;2023-12-04T15:35:15;13;13;
81640;PMS5003;74020;50.722;-1.944;2023-12-04T15:37:40;13;13;
81640;PMS5003;74020;50.722;-1.944;2023-12-04T15:40:06;12;12;
81640;PMS5003;74020;50.722;-1.944;2023-12-04T15:42:31;15;15;
81640;PMS5003;74020;50.722;-1.944;2023-12-04T15:44:56;11;11;
81640;PMS5003;74020;50.722;-1.944;2023-12-04T15:47:22;13;13;
81640;PMS5003;74020;50.722;-1.944;2023-12-04T15:49:47;12;12;
81640;PMS5003;74020;50.722;-1.944;2023-12-04T15:52:12;13;12;
81640;PMS5003;74020;50.722;-1.944;2023-12-04T15:54:37;14;14;
81640;PMS5003;74020;50.722;-1.944;2023-12-04T15:57:03;16;15;
81640;PMS5003;74020;50.722;-1.944;2023-12-04T15:59:27;16;16;
81640;PMS5003;74020;50.722;-1.944;2023-12-04T16:01:53;19;19;
81640;PMS5003;74020;50.722;-1.944;2023-12-04T16:04:18;18;18;
81640;PMS5003;74020;50.722;-1.944;2023-12-04T16:06:43;21;20;
81640;PMS5003;74020;50.722;-1.944;2023-12-04T16:09:09;22;22;
81640;PMS5003;74020;50.722;-1.944;2023-12-04T16:11:34;20;19;
81640;PMS5003;74020;50.722;-1.944;2023-12-04T16:13:59;27;25;
81640;PMS5003;74020;50.722;-1.944;2023-12-04T16:16:24;19;19;
81640;PMS5003;74020;50.722;-1.944;2023-12-04T16:18:49;22;22;
81640;PMS5003;74020;50.722;-1.944;2023-12-04T16:21:15;32;30;